Current Conditions
Gedeeltelijk Bewolkt




Pressure
998.92 (mb) - 29.5 (inHG)
Visibility

10.0 (km) - 6.2 (miles)
   Temperature
3  °C
37°F
0  °C
Dewpoint
81  %
 Humidity
   Wind Speed
11  km/h
6  kts
7  mph
3.1  m/s
   Wind Direction
 150°
South South
East
   Airport Data
EHAM
Location Amsterdam Airport Schiphol 80 km (49.72 mi)
Metar :EHAM 051625Z 15006KT 9999 FEW025 SCT033 03/M00 Q0999 NOSIG
Sat 5th December 17:25 pm
   Raw Metar Info
Raw METAR is the most common format in the world for the transmission of observational weather data. It is highly standardized through the International Civil Aviation Organization (ICAO), which allows it to be understood throughout most of the world.
   API Info
Data Provided by
https://www.checkwx.com/weather/EHAM
   © Info
CSS/SVG/PHP scripts were developed by weather34.com for use in the weather34 template © 2015-2020

Guide Info provided by Metar-Wikipedia